createdAt,value
2023-05-06T00:02:20.368Z,107444.78
2023-05-06T00:07:24.518Z,107434.06
2023-05-06T00:12:27.214Z,107576.84
2023-05-06T00:17:29.904Z,107578.88
2023-05-06T00:22:34.775Z,107674.56
2023-05-06T00:27:37.451Z,107684.91
2023-05-06T00:32:40.297Z,107683.25
2023-05-06T00:37:46.133Z,107637.81
2023-05-06T00:42:48.800Z,107702.97
2023-05-06T00:47:51.571Z,107712.84
2023-05-06T00:52:55.727Z,107743.38
2023-05-06T00:57:58.490Z,107949.66
2023-05-06T01:03:01.266Z,107934.97
2023-05-06T01:08:12.517Z,107917.41
2023-05-06T01:13:19.576Z,107987.34
2023-05-06T01:18:24.391Z,108066.25
2023-05-06T01:23:28.410Z,108090.53
2023-05-06T01:28:31.054Z,108072.97
2023-05-06T01:33:38.222Z,107962.56
2023-05-06T01:38:55.288Z,107950.53
2023-05-06T01:43:59.303Z,108034.41
2023-05-06T01:49:05.376Z,108152.25
2023-05-06T01:54:09.394Z,108195.03
2023-05-06T01:59:12.088Z,108213.31
2023-05-06T02:04:15.863Z,108136.22
2023-05-06T02:09:20.526Z,108157.84
2023-05-06T02:14:29.347Z,108110.84
2023-05-06T02:19:33.323Z,108335.22
2023-05-06T02:24:37.367Z,108622.06
2023-05-06T02:29:40.054Z,108579.59
2023-05-06T02:34:42.837Z,108511.78
2023-05-06T02:39:47.268Z,108857.72
2023-05-06T02:44:49.982Z,108859.63
2023-05-06T02:49:52.663Z,108941.16
2023-05-06T02:54:56.725Z,108965.31
2023-05-06T02:59:59.548Z,109132.13
2023-05-06T03:05:04.411Z,109227.72
2023-05-06T03:10:10.340Z,109438.69
2023-05-06T03:15:14.117Z,109597.47
2023-05-06T03:20:16.844Z,109802.66
2023-05-06T03:25:27.416Z,109998.91
2023-05-06T03:30:31.303Z,110185.06
2023-05-06T03:35:37.024Z,110663.63
2023-05-06T03:40:41.318Z,110817.16
2023-05-06T03:45:44.588Z,110924.75
2023-05-06T03:50:47.838Z,111281.53
2023-05-06T03:55:53.117Z,111819.66
2023-05-06T04:00:56.122Z,111889.34
2023-05-06T04:05:58.944Z,111950.78
2023-05-06T04:11:06.894Z,112099.22
2023-05-06T04:16:12.502Z,112433.22
2023-05-06T04:21:19.292Z,112741.00
2023-05-06T04:26:30.063Z,112805.56
2023-05-06T04:31:34.354Z,113107.59
2023-05-06T04:36:40.702Z,113381.25
2023-05-06T04:42:05.785Z,113496.25
2023-05-06T04:47:15.750Z,113635.56
2023-05-06T04:52:23.104Z,113992.97
2023-05-06T04:57:27.343Z,114102.81
2023-05-06T05:02:31.531Z,114335.31
2023-05-06T05:07:34.409Z,114602.09
2023-05-06T05:12:38.739Z,114640.41
2023-05-06T05:17:42.358Z,114737.03
2023-05-06T05:22:45.460Z,115096.75
2023-05-06T05:27:49.845Z,115135.91
2023-05-06T05:32:54.136Z,115203.41
2023-05-06T05:37:57.059Z,115462.81
2023-05-06T05:43:01.550Z,115476.63
2023-05-06T05:48:09.943Z,115359.69
2023-05-06T05:53:13.121Z,115353.00
2023-05-06T05:58:18.227Z,115565.06
2023-05-06T06:03:21.281Z,115208.69
2023-05-06T06:08:24.158Z,115380.66
2023-05-06T06:13:29.962Z,115468.53
2023-05-06T06:18:34.823Z,115287.63
2023-05-06T06:23:38.645Z,115206.19
2023-05-06T06:28:44.662Z,114981.09
2023-05-06T06:33:47.499Z,115098.94
2023-05-06T06:38:50.229Z,115209.69
2023-05-06T06:43:54.266Z,115150.88
2023-05-06T06:49:01.563Z,115210.19
2023-05-06T06:54:04.430Z,114921.56
2023-05-06T06:59:08.707Z,114645.22
2023-05-06T07:04:11.420Z,114368.16
2023-05-06T07:09:14.299Z,113842.09
2023-05-06T07:14:18.326Z,113025.28
2023-05-06T07:19:20.971Z,112513.00
2023-05-06T07:24:23.894Z,111822.53
2023-05-06T07:29:28.027Z,111213.88
2023-05-06T07:34:30.741Z,111418.75
2023-05-06T07:39:33.410Z,110442.50
2023-05-06T07:44:37.706Z,109709.16
2023-05-06T07:49:40.373Z,108766.13
2023-05-06T07:54:43.031Z,108080.00
2023-05-06T07:59:48.591Z,107644.91
2023-05-06T08:04:51.849Z,106825.91
2023-05-06T08:09:54.809Z,105986.56
2023-05-06T08:14:58.840Z,105036.91
2023-05-06T08:20:01.520Z,104646.81
2023-05-06T08:25:04.365Z,104528.22
2023-05-06T08:30:10.732Z,104068.09
2023-05-06T08:35:13.959Z,103974.53
2023-05-06T08:40:19.603Z,103709.75
2023-05-06T08:45:24.175Z,103408.25
2023-05-06T08:50:26.871Z,103274.97
2023-05-06T08:55:29.691Z,103177.41
2023-05-06T09:00:33.819Z,102928.94
2023-05-06T09:05:36.494Z,102761.41
2023-05-06T09:10:44.564Z,102533.81
2023-05-06T09:15:49.642Z,102392.34
2023-05-06T09:20:52.762Z,102325.97
2023-05-06T09:25:55.882Z,102199.69
2023-05-06T09:31:00.423Z,102075.59
2023-05-06T09:36:03.175Z,102114.13
2023-05-06T09:41:06.513Z,102005.38
2023-05-06T09:46:10.733Z,101885.63
2023-05-06T09:51:13.998Z,101658.47
2023-05-06T09:56:17.192Z,101706.72
2023-05-06T10:01:32.602Z,101722.00
2023-05-06T10:06:41.086Z,101596.66
2023-05-06T10:11:44.674Z,101527.72
2023-05-06T10:16:49.819Z,101463.81
2023-05-06T10:21:56.237Z,101543.22
2023-05-06T10:26:58.724Z,101507.75
2023-05-06T10:32:04.098Z,101421.75
2023-05-06T10:37:07.147Z,101415.50
2023-05-06T10:42:11.445Z,101421.69
2023-05-06T10:47:15.440Z,101373.50
2023-05-06T10:52:18.217Z,101390.50
2023-05-06T10:57:26.852Z,101309.34
2023-05-06T11:02:31.576Z,101373.13
2023-05-06T11:07:34.421Z,101263.22
2023-05-06T11:12:51.005Z,101295.41
2023-05-06T11:17:56.888Z,101309.16
2023-05-06T11:22:59.650Z,101326.69
2023-05-06T11:28:02.294Z,101271.16
2023-05-06T11:33:07.413Z,101298.69
2023-05-06T11:38:10.402Z,101347.19
2023-05-06T11:43:13.656Z,101362.16
2023-05-06T11:48:18.715Z,101314.50
2023-05-06T11:53:22.791Z,101338.25
2023-05-06T11:58:26.833Z,101383.44
2023-05-06T12:03:32.570Z,101350.97
2023-05-06T12:08:37.035Z,101401.53
2023-05-06T12:13:40.637Z,101321.97
2023-05-06T12:18:44.775Z,101455.75
2023-05-06T12:23:54.184Z,101433.34
2023-05-06T12:29:07.866Z,101224.19
2023-05-06T12:34:12.206Z,101395.97
2023-05-06T12:39:15.122Z,101342.00
2023-05-06T12:44:37.383Z,101296.22
2023-05-06T12:49:51.693Z,101308.09
2023-05-06T12:54:54.414Z,101354.94
2023-05-06T12:59:57.251Z,101200.19
2023-05-06T13:05:02.104Z,101232.59
2023-05-06T13:10:06.069Z,101177.09
2023-05-06T13:15:10.056Z,101266.38
2023-05-06T13:20:14.493Z,101158.88
2023-05-06T13:25:17.339Z,100874.63
2023-05-06T13:30:19.999Z,100731.63
2023-05-06T13:35:24.005Z,100629.63
2023-05-06T13:40:26.700Z,100601.94
2023-05-06T13:45:29.418Z,100596.56
2023-05-06T13:50:35.415Z,100590.34
2023-05-06T13:55:38.144Z,100585.75
2023-05-06T14:00:40.867Z,100579.47
2023-05-06T14:05:45.341Z,100572.38
2023-05-06T14:10:48.207Z,100568.50
2023-05-06T14:15:50.862Z,100561.72
2023-05-06T14:20:54.851Z,100552.75
2023-05-06T14:25:57.453Z,100553.59
2023-05-06T14:31:00.064Z,100551.75
2023-05-06T14:36:04.213Z,100546.47
2023-05-06T14:41:06.910Z,100545.63
2023-05-06T14:46:11.099Z,100540.25
2023-05-06T14:51:15.124Z,100540.22
2023-05-06T14:56:17.807Z,100537.56
2023-05-06T15:01:20.647Z,100538.41
2023-05-06T15:06:25.024Z,100531.28
2023-05-06T15:11:27.699Z,100536.63
2023-05-06T15:16:30.365Z,100525.97
2023-05-06T15:21:34.413Z,100534.03
2023-05-06T15:26:37.092Z,100531.34
2023-05-06T15:31:40.835Z,100531.31
2023-05-06T15:36:45.482Z,100528.66
2023-05-06T15:41:48.600Z,100528.66
2023-05-06T15:46:51.250Z,100522.38
2023-05-06T15:51:55.256Z,100531.34
2023-05-06T15:57:00.357Z,100530.44
2023-05-06T16:07:10.429Z,100523.28
2023-05-06T16:12:14.654Z,100526.84
2023-05-06T16:17:17.553Z,100525.97
2023-05-06T16:22:21.787Z,100518.81
2023-05-06T16:27:27.339Z,100526.88
2023-05-06T16:32:30.085Z,100515.19
2023-05-06T16:37:34.155Z,100514.31
2023-05-06T16:42:37.044Z,100516.13
2023-05-06T16:47:39.910Z,100508.91
2023-05-06T16:52:44.092Z,100507.16
2023-05-06T16:57:46.778Z,100506.28
2023-05-06T17:02:49.491Z,100500.00
2023-05-06T17:07:53.519Z,100501.81
2023-05-06T17:12:56.800Z,100502.66
2023-05-06T17:17:59.558Z,100511.53
2023-05-06T17:23:03.710Z,100517.72
2023-05-06T17:28:06.405Z,100520.34
2023-05-06T17:33:09.142Z,100517.66
2023-05-06T17:38:14.529Z,100518.50
2023-05-06T17:43:17.217Z,100515.81
2023-05-06T17:48:19.903Z,100522.81
2023-05-06T17:53:24.297Z,100522.81
2023-05-06T17:58:27.077Z,100523.63
2023-05-06T18:03:29.986Z,100526.28
2023-05-06T18:08:34.118Z,100533.25
2023-05-06T18:13:37.323Z,100541.94
2023-05-06T18:18:39.985Z,100545.50
2023-05-06T18:23:44.359Z,100544.72
2023-05-06T18:28:47.042Z,100551.59
2023-05-06T18:33:49.860Z,100591.22
2023-05-06T18:38:53.904Z,100600.34
2023-05-06T18:43:56.591Z,100605.78
2023-05-06T18:49:00.735Z,100628.59
2023-05-06T18:54:04.821Z,100656.59
2023-05-06T18:59:08.965Z,100683.34
2023-05-06T19:04:11.678Z,100737.75
2023-05-06T19:09:15.878Z,100801.31
2023-05-06T19:14:18.550Z,100868.59
2023-05-06T19:19:21.242Z,100856.09
2023-05-06T19:24:25.324Z,100873.78
2023-05-06T19:29:28.015Z,100900.13
2023-05-06T19:34:30.715Z,100904.94
2023-05-06T19:39:34.758Z,100913.69
2023-05-06T19:44:37.418Z,100915.94
2023-05-06T19:49:40.068Z,100902.84
2023-05-06T19:54:44.194Z,100894.22
2023-05-06T19:59:47.152Z,100896.13
2023-05-06T20:04:49.837Z,100894.22
2023-05-06T20:09:55.770Z,100895.94
2023-05-06T20:14:58.563Z,100900.31
2023-05-06T20:20:09.223Z,100883.41
2023-05-06T20:25:15.968Z,100882.41
2023-05-06T20:30:18.731Z,100885.00
2023-05-06T20:35:21.461Z,100908.78
2023-05-06T20:40:25.479Z,100911.00
2023-05-06T20:45:28.420Z,100925.00
2023-05-06T20:50:31.278Z,100929.47
2023-05-06T20:55:35.389Z,100948.38
2023-05-06T21:00:38.092Z,100930.69
2023-05-06T21:05:40.923Z,100921.09
2023-05-06T21:10:44.997Z,100928.19
2023-05-06T21:15:47.644Z,100927.78
2023-05-06T21:20:50.477Z,100965.44
2023-05-06T21:25:54.591Z,101034.75
2023-05-06T21:30:57.337Z,101071.41
2023-05-06T21:36:00.163Z,101110.78
2023-05-06T21:41:04.296Z,101165.53
2023-05-06T21:46:07.002Z,101210.16
2023-05-06T21:51:09.692Z,101264.00
2023-05-06T21:56:13.745Z,101291.22
2023-05-06T22:01:16.788Z,101271.63
2023-05-06T22:06:19.528Z,101312.22
2023-05-06T22:11:24.731Z,101344.47
2023-05-06T22:16:27.469Z,101363.78
2023-05-06T22:21:30.385Z,101384.69
2023-05-06T22:26:34.527Z,101366.22
2023-05-06T22:31:37.339Z,101387.53
2023-05-06T22:36:40.104Z,101363.91
2023-05-06T22:41:44.594Z,101376.59
2023-05-06T22:46:47.340Z,101380.41
2023-05-06T22:51:50.176Z,101376.28
2023-05-06T22:56:54.256Z,101383.81
2023-05-06T23:01:56.959Z,101398.50
2023-05-06T23:06:59.648Z,101403.88
2023-05-06T23:12:03.780Z,101411.94
2023-05-06T23:17:07.130Z,101426.69
2023-05-06T23:22:09.842Z,101435.50
2023-05-06T23:27:13.911Z,101458.78
2023-05-06T23:32:16.633Z,101465.75
2023-05-06T23:37:19.459Z,101489.16
2023-05-06T23:42:25.450Z,101514.59
2023-05-06T23:47:28.406Z,101544.63
2023-05-06T23:52:31.284Z,101583.97
2023-05-06T23:57:35.358Z,101608.03
